createdAt,value
2022-09-06T00:00:55.120Z,46.83
2022-09-06T00:01:55.112Z,45.07
2022-09-06T00:02:55.163Z,44.93
2022-09-06T00:03:55.174Z,45.04
2022-09-06T00:04:55.104Z,47.47
2022-09-06T00:05:55.113Z,45.22
2022-09-06T00:06:55.093Z,45.65
2022-09-06T00:07:55.100Z,54.61
2022-09-06T00:08:55.080Z,46.82
2022-09-06T00:09:55.125Z,49.18
2022-09-06T00:10:58.975Z,56.49
2022-09-06T00:11:57.066Z,46.91
2022-09-06T00:12:55.076Z,46.67
2022-09-06T00:13:55.062Z,49.89
2022-09-06T00:14:55.029Z,54.93
2022-09-06T00:15:55.163Z,53.31
2022-09-06T00:16:55.031Z,46.79
2022-09-06T00:17:55.029Z,56.41
2022-09-06T00:18:55.025Z,49.34
2022-09-06T00:19:54.999Z,48.49
2022-09-06T00:20:55.033Z,47.25
2022-09-06T00:21:54.992Z,48.48
2022-09-06T00:22:54.989Z,55.46
2022-09-06T00:23:54.989Z,58.89
2022-09-06T00:24:54.973Z,56.55
2022-09-06T00:25:54.992Z,47.61
2022-09-06T00:26:54.968Z,47.96
2022-09-06T00:27:54.950Z,65.22
2022-09-06T00:28:54.982Z,58.54
2022-09-06T00:29:54.944Z,52.04
2022-09-06T00:30:55.055Z,46.38
2022-09-06T00:31:54.982Z,56.81
2022-09-06T00:32:54.930Z,61.13
2022-09-06T00:33:54.932Z,50.92
2022-09-06T00:34:54.922Z,50.36
2022-09-06T00:35:54.908Z,56.79
2022-09-06T00:36:54.912Z,47.68
2022-09-06T00:37:54.890Z,53.26
2022-09-06T00:38:54.897Z,46.05
2022-09-06T00:39:54.955Z,45.82
2022-09-06T00:40:54.943Z,53.42
2022-09-06T00:41:54.908Z,45.49
2022-09-06T00:42:54.876Z,47.47
2022-09-06T00:43:54.860Z,50.62
2022-09-06T00:44:54.875Z,55.21
2022-09-06T00:45:54.891Z,44.58
2022-09-06T00:46:54.854Z,59.88
2022-09-06T00:47:54.841Z,44.78
2022-09-06T00:48:54.834Z,53.49
2022-09-06T00:49:54.835Z,44.23
2022-09-06T00:50:54.822Z,45.75
2022-09-06T00:51:54.797Z,52.05
2022-09-06T00:52:54.806Z,50.94
2022-09-06T00:53:54.812Z,53.71
2022-09-06T00:54:54.773Z,47.48
2022-09-06T00:55:54.778Z,43.67
2022-09-06T00:56:54.777Z,43.62
2022-09-06T00:57:54.783Z,43.39
2022-09-06T00:58:54.753Z,43.27
2022-09-06T00:59:54.749Z,43.45
2022-09-06T01:00:54.746Z,53.80
2022-09-06T01:01:54.793Z,45.54
2022-09-06T01:02:54.832Z,45.08
2022-09-06T01:03:54.765Z,43.96
2022-09-06T01:04:54.739Z,43.41
2022-09-06T01:05:54.814Z,44.57
2022-09-06T01:06:54.715Z,44.82
2022-09-06T01:07:54.703Z,49.75
2022-09-06T01:08:54.718Z,47.96
2022-09-06T01:09:54.687Z,44.71
2022-09-06T01:10:54.674Z,45.23
2022-09-06T01:11:54.668Z,45.11
2022-09-06T01:12:54.668Z,48.87
2022-09-06T01:13:54.673Z,50.44
2022-09-06T01:14:54.680Z,44.90
2022-09-06T01:15:54.691Z,45.82
2022-09-06T01:16:54.647Z,54.63
2022-09-06T01:17:54.664Z,60.43
2022-09-06T01:18:54.627Z,50.55
2022-09-06T01:19:54.651Z,46.20
2022-09-06T01:20:54.616Z,45.33
2022-09-06T01:21:54.633Z,46.77
2022-09-06T01:22:54.604Z,54.90
2022-09-06T01:23:54.617Z,54.37
2022-09-06T01:24:54.587Z,47.84
2022-09-06T01:25:54.600Z,49.26
2022-09-06T01:26:55.252Z,50.02
2022-09-06T01:27:54.580Z,47.02
2022-09-06T01:28:54.563Z,46.68
2022-09-06T01:29:54.556Z,50.73
2022-09-06T01:30:54.598Z,54.79
2022-09-06T01:31:54.590Z,50.00
2022-09-06T01:32:54.543Z,50.39
2022-09-06T01:33:54.535Z,49.96
2022-09-06T01:34:54.531Z,55.19
2022-09-06T01:35:54.549Z,56.14
2022-09-06T01:37:09.507Z,59.61
2022-09-06T01:37:56.507Z,50.90
2022-09-06T01:38:54.507Z,50.23
2022-09-06T01:39:54.542Z,54.91
2022-09-06T01:40:54.495Z,62.13
2022-09-06T01:41:54.479Z,52.25
2022-09-06T01:42:54.508Z,61.91
2022-09-06T01:43:54.479Z,52.72
2022-09-06T01:44:54.470Z,56.11
2022-09-06T01:45:54.476Z,49.42
2022-09-06T01:46:54.458Z,49.51
2022-09-06T01:47:54.476Z,54.13
2022-09-06T01:48:54.440Z,59.37
2022-09-06T01:49:54.447Z,52.93
2022-09-06T01:50:54.436Z,58.84
2022-09-06T01:51:54.430Z,58.48
2022-09-06T01:52:54.415Z,54.57
2022-09-06T01:53:54.423Z,51.71
2022-09-06T01:54:54.397Z,53.31
2022-09-06T01:55:54.433Z,52.14
2022-09-06T01:56:54.388Z,50.79
2022-09-06T01:57:54.383Z,55.46
2022-09-06T01:58:54.380Z,52.32
2022-09-06T01:59:54.364Z,52.11
2022-09-06T02:00:54.372Z,51.09
2022-09-06T02:01:54.471Z,51.01
2022-09-06T02:02:54.365Z,60.21
2022-09-06T02:03:54.345Z,52.15
2022-09-06T02:04:54.351Z,54.67
2022-09-06T02:05:54.356Z,48.47
2022-09-06T02:06:54.339Z,57.02
2022-09-06T02:07:54.320Z,63.70
2022-09-06T02:08:54.343Z,50.47
2022-09-06T02:09:54.319Z,48.29
2022-09-06T02:10:54.287Z,56.09
2022-09-06T02:11:54.306Z,48.79
2022-09-06T02:12:54.320Z,51.85
2022-09-06T02:13:54.288Z,54.61
2022-09-06T02:14:54.279Z,49.68
2022-09-06T02:15:54.300Z,50.11
2022-09-06T02:16:54.327Z,49.52
2022-09-06T02:17:54.239Z,56.44
2022-09-06T02:18:54.247Z,50.38
2022-09-06T02:19:54.232Z,57.91
2022-09-06T02:20:54.258Z,56.88
2022-09-06T02:21:54.229Z,54.96
2022-09-06T02:22:54.204Z,56.16
2022-09-06T02:23:54.192Z,49.22
2022-09-06T02:24:54.215Z,51.92
2022-09-06T02:25:54.180Z,52.06
2022-09-06T02:26:54.195Z,55.68
2022-09-06T02:27:54.191Z,55.91
2022-09-06T02:28:54.175Z,49.86
2022-09-06T02:29:54.168Z,56.07
2022-09-06T02:30:54.207Z,60.68
2022-09-06T02:31:54.175Z,61.69
2022-09-06T02:32:54.131Z,57.10
2022-09-06T02:33:54.137Z,50.33
2022-09-06T02:34:54.132Z,53.15
2022-09-06T02:35:54.131Z,53.49
2022-09-06T02:36:54.192Z,62.70
2022-09-06T02:37:54.131Z,55.49
2022-09-06T02:38:54.091Z,52.88
2022-09-06T02:39:54.114Z,56.08
2022-09-06T02:40:54.260Z,50.39
2022-09-06T02:41:54.108Z,57.63
2022-09-06T02:42:54.077Z,57.20
2022-09-06T02:43:54.068Z,58.02
2022-09-06T02:44:54.055Z,59.70
2022-09-06T02:45:54.112Z,52.68
2022-09-06T02:46:57.176Z,61.31
2022-09-06T02:47:55.063Z,56.23
2022-09-06T02:48:54.083Z,58.21
2022-09-06T02:49:54.025Z,50.62
2022-09-06T02:50:54.208Z,61.64
2022-09-06T02:51:54.050Z,57.27
2022-09-06T02:52:54.030Z,65.46
2022-09-06T02:53:54.008Z,51.49
2022-09-06T02:54:54.027Z,53.56
2022-09-06T02:55:53.985Z,59.41
2022-09-06T02:56:53.983Z,61.76
2022-09-06T02:57:53.979Z,66.58
2022-09-06T02:58:54.033Z,61.23
2022-09-06T02:59:53.979Z,57.58
2022-09-06T03:00:54.033Z,62.16
2022-09-06T03:01:53.945Z,63.47
2022-09-06T03:02:53.948Z,55.68
2022-09-06T03:03:53.939Z,56.01
2022-09-06T03:04:53.975Z,60.48
2022-09-06T03:05:53.961Z,63.97
2022-09-06T03:06:53.933Z,62.83
2022-09-06T03:07:53.906Z,56.62
2022-09-06T03:08:53.927Z,61.00
2022-09-06T03:09:53.890Z,60.13
2022-09-06T03:10:53.906Z,65.27
2022-09-06T03:11:53.890Z,63.72
2022-09-06T03:12:53.881Z,60.13
2022-09-06T03:13:53.887Z,59.31
2022-09-06T03:14:55.131Z,58.60
2022-09-06T03:15:54.894Z,62.53
2022-09-06T03:16:53.938Z,66.99
2022-09-06T03:17:53.856Z,61.53
2022-09-06T03:18:53.848Z,63.75
2022-09-06T03:19:53.864Z,69.40
2022-09-06T03:20:53.847Z,64.27
2022-09-06T03:21:53.855Z,64.58
2022-09-06T03:22:53.816Z,63.59
2022-09-06T03:23:53.827Z,52.82
2022-09-06T03:24:53.811Z,60.60
2022-09-06T03:25:53.831Z,67.10
2022-09-06T03:26:53.791Z,62.42
2022-09-06T03:27:53.788Z,60.35
2022-09-06T03:28:53.767Z,64.45
2022-09-06T03:29:53.780Z,68.78
2022-09-06T03:30:53.861Z,68.78
2022-09-06T03:31:53.752Z,65.73
2022-09-06T03:32:53.792Z,67.01
2022-09-06T03:33:53.751Z,65.81
2022-09-06T03:34:54.288Z,66.81
2022-09-06T03:35:53.735Z,66.27
2022-09-06T03:36:53.731Z,63.89
2022-09-06T03:37:53.780Z,71.87
2022-09-06T03:38:54.261Z,63.75
2022-09-06T03:39:53.787Z,65.33
2022-09-06T03:40:53.692Z,63.36
2022-09-06T03:41:53.707Z,63.23
2022-09-06T03:42:53.696Z,62.78
2022-09-06T03:43:53.683Z,71.53
2022-09-06T03:44:53.730Z,65.99
2022-09-06T03:45:53.764Z,58.64
2022-09-06T03:46:53.699Z,71.30
2022-09-06T03:47:53.640Z,65.26
2022-09-06T03:48:54.672Z,61.28
2022-09-06T03:49:53.640Z,67.63
2022-09-06T03:50:53.693Z,68.68
2022-09-06T03:51:53.610Z,71.83
2022-09-06T03:52:53.628Z,65.09
2022-09-06T03:53:53.635Z,69.63
2022-09-06T03:54:53.594Z,71.00
2022-09-06T03:55:53.588Z,66.40
2022-09-06T03:56:54.631Z,69.58
2022-09-06T03:57:53.643Z,70.85
2022-09-06T03:58:53.585Z,70.84
2022-09-06T03:59:53.571Z,69.25
2022-09-06T04:00:53.600Z,66.61
2022-09-06T04:01:53.684Z,63.82
2022-09-06T04:02:53.620Z,70.91
2022-09-06T04:03:53.579Z,62.48
2022-09-06T04:04:53.531Z,67.60
2022-09-06T04:05:53.551Z,65.90
2022-09-06T04:06:53.515Z,66.00
2022-09-06T04:07:53.552Z,66.42
2022-09-06T04:08:53.542Z,67.19
2022-09-06T04:09:53.507Z,65.40
2022-09-06T04:10:53.528Z,65.16
2022-09-06T04:11:53.503Z,66.60
2022-09-06T04:12:53.495Z,68.40
2022-09-06T04:13:53.519Z,71.96
2022-09-06T04:14:53.479Z,64.77
2022-09-06T04:15:53.465Z,67.90
2022-09-06T04:16:53.561Z,63.84
2022-09-06T04:17:53.451Z,64.86
2022-09-06T04:18:53.503Z,60.21
2022-09-06T04:19:53.440Z,68.89
2022-09-06T04:20:53.423Z,72.86
2022-09-06T04:21:53.464Z,69.94
2022-09-06T04:22:53.599Z,67.49
2022-09-06T04:23:53.459Z,68.76
2022-09-06T04:24:53.419Z,66.16
2022-09-06T04:25:53.391Z,66.66
2022-09-06T04:26:53.407Z,66.36
2022-09-06T04:27:53.440Z,68.32
2022-09-06T04:28:53.446Z,66.86
2022-09-06T04:29:53.367Z,68.89
2022-09-06T04:30:53.363Z,67.02
2022-09-06T04:31:53.457Z,68.56
2022-09-06T04:32:53.374Z,64.50
2022-09-06T04:33:53.360Z,70.85
2022-09-06T04:34:53.405Z,70.90
2022-09-06T04:35:53.338Z,69.31
2022-09-06T04:36:53.315Z,66.39
2022-09-06T04:37:53.336Z,68.79
2022-09-06T04:38:53.295Z,67.74
2022-09-06T04:39:53.386Z,69.61
2022-09-06T04:40:53.323Z,67.28
2022-09-06T04:41:53.284Z,69.44
2022-09-06T04:42:53.323Z,66.77
2022-09-06T04:43:53.272Z,65.93
2022-09-06T04:44:53.259Z,71.72
2022-09-06T04:45:53.351Z,69.32
2022-09-06T04:46:54.795Z,71.88
2022-09-06T04:47:53.239Z,72.21
2022-09-06T04:48:53.277Z,72.07
2022-09-06T04:49:53.226Z,70.18
2022-09-06T04:50:53.231Z,70.77
2022-09-06T04:51:53.229Z,72.03
2022-09-06T04:52:53.213Z,75.67
2022-09-06T04:53:53.206Z,69.86
2022-09-06T04:54:53.190Z,70.66
2022-09-06T04:55:53.202Z,67.61
2022-09-06T04:56:53.177Z,66.34
2022-09-06T04:57:53.193Z,68.09
2022-09-06T04:58:53.174Z,70.19
2022-09-06T04:59:53.238Z,69.77
2022-09-06T05:00:53.197Z,60.62
2022-09-06T05:01:53.187Z,70.39
2022-09-06T05:02:53.739Z,71.01
2022-09-06T05:03:56.732Z,69.64
2022-09-06T05:04:54.250Z,71.76
2022-09-06T05:05:53.137Z,69.42
2022-09-06T05:06:53.141Z,71.12
2022-09-06T05:07:53.129Z,69.43
2022-09-06T05:08:53.146Z,71.35
2022-09-06T05:09:53.113Z,72.78
2022-09-06T05:10:53.161Z,64.69
2022-09-06T05:11:53.113Z,71.29
2022-09-06T05:12:53.077Z,73.47
2022-09-06T05:13:53.117Z,70.35
2022-09-06T05:14:53.081Z,73.41
2022-09-06T05:15:53.793Z,74.11
2022-09-06T05:16:53.151Z,69.50
2022-09-06T05:17:53.041Z,67.47
2022-09-06T05:18:53.046Z,74.74
2022-09-06T05:19:53.657Z,71.32
2022-09-06T05:20:53.048Z,72.89
2022-09-06T05:21:53.045Z,74.34
2022-09-06T05:22:53.053Z,70.31
2022-09-06T05:23:56.671Z,66.51
2022-09-06T05:24:55.025Z,71.51
2022-09-06T05:25:52.999Z,73.96
2022-09-06T05:26:53.001Z,74.13
2022-09-06T05:27:52.986Z,66.97
2022-09-06T05:28:52.992Z,71.71
2022-09-06T05:29:52.969Z,73.30
2022-09-06T05:30:52.977Z,70.44
2022-09-06T05:31:53.039Z,71.43
2022-09-06T05:32:52.965Z,72.07
2022-09-06T05:33:52.959Z,73.79
2022-09-06T05:34:52.987Z,70.30
2022-09-06T05:35:52.931Z,71.60
2022-09-06T05:36:52.923Z,69.67
2022-09-06T05:37:52.947Z,70.33
2022-09-06T05:38:52.902Z,71.65
2022-09-06T05:39:52.958Z,71.20
2022-09-06T05:40:52.920Z,70.45
2022-09-06T05:41:52.931Z,71.45
2022-09-06T05:42:52.902Z,71.86
2022-09-06T05:43:52.952Z,72.79
2022-09-06T05:44:52.867Z,70.72
2022-09-06T05:45:53.860Z,71.41
2022-09-06T05:46:52.875Z,74.40
2022-09-06T05:47:52.831Z,69.99
2022-09-06T05:48:53.851Z,67.30
2022-09-06T05:49:52.849Z,70.33
2022-09-06T05:50:52.836Z,68.54
2022-09-06T05:51:52.819Z,72.81
2022-09-06T05:52:52.910Z,69.30
2022-09-06T05:53:52.811Z,67.53
2022-09-06T05:54:52.799Z,72.19
2022-09-06T05:55:52.791Z,67.08
2022-09-06T05:56:52.779Z,71.74
2022-09-06T05:57:52.786Z,67.66
2022-09-06T05:58:52.783Z,70.90
2022-09-06T05:59:52.764Z,68.57
2022-09-06T06:00:52.864Z,72.73
2022-09-06T06:01:52.858Z,69.03
2022-09-06T06:02:52.742Z,70.36
2022-09-06T06:03:52.769Z,74.45
2022-09-06T06:04:52.803Z,70.53
2022-09-06T06:05:52.727Z,68.72
2022-09-06T06:06:53.303Z,68.32
2022-09-06T06:07:52.720Z,69.29
2022-09-06T06:08:52.719Z,65.45
2022-09-06T06:09:52.691Z,69.20
2022-09-06T06:10:52.715Z,70.48
2022-09-06T06:11:53.680Z,70.67
2022-09-06T06:12:52.695Z,71.94
2022-09-06T06:13:52.692Z,70.26
2022-09-06T06:14:52.683Z,70.55
2022-09-06T06:15:52.655Z,70.02
2022-09-06T06:16:52.761Z,71.15
2022-09-06T06:17:52.641Z,74.88
2022-09-06T06:18:52.956Z,71.21
2022-09-06T06:19:52.651Z,69.17
2022-09-06T06:20:52.620Z,71.20
2022-09-06T06:21:52.617Z,70.19
2022-09-06T06:22:52.643Z,70.84
2022-09-06T06:23:52.627Z,69.50
2022-09-06T06:24:52.615Z,70.07
2022-09-06T06:25:52.672Z,65.10
2022-09-06T06:26:52.587Z,66.45
2022-09-06T06:27:52.582Z,71.70
2022-09-06T06:28:52.582Z,68.47
2022-09-06T06:29:52.575Z,69.80
2022-09-06T06:30:52.559Z,68.41
2022-09-06T06:31:52.673Z,70.53
2022-09-06T06:32:52.537Z,69.30
2022-09-06T06:33:53.537Z,69.83
2022-09-06T06:34:52.597Z,67.87
2022-09-06T06:35:52.538Z,74.09
2022-09-06T06:36:52.509Z,72.04
2022-09-06T06:37:52.541Z,70.23
2022-09-06T06:38:52.506Z,67.79
2022-09-06T06:39:52.607Z,71.24
2022-09-06T06:40:57.216Z,70.13
2022-09-06T06:41:54.486Z,70.99
2022-09-06T06:42:52.488Z,72.93
2022-09-06T06:43:52.583Z,71.33
2022-09-06T06:44:52.467Z,66.99
2022-09-06T06:45:52.508Z,69.38
2022-09-06T06:46:52.519Z,72.14
2022-09-06T06:47:52.491Z,73.92
2022-09-06T06:48:54.899Z,67.84
2022-09-06T06:49:53.511Z,73.44
2022-09-06T06:50:52.475Z,69.27
2022-09-06T06:51:52.454Z,71.28
2022-09-06T06:52:52.619Z,69.33
2022-09-06T06:53:52.421Z,68.18
2022-09-06T06:54:52.407Z,66.74
2022-09-06T06:55:52.555Z,73.51
2022-09-06T06:56:52.391Z,71.46
2022-09-06T06:57:53.431Z,70.48
2022-09-06T06:58:52.387Z,69.62
2022-09-06T06:59:52.399Z,67.65
2022-09-06T07:00:52.467Z,68.87
2022-09-06T07:01:52.587Z,71.03
2022-09-06T07:02:52.403Z,69.82
2022-09-06T07:03:52.436Z,67.65
2022-09-06T07:04:52.361Z,72.88
2022-09-06T07:07:54.456Z,69.72
2022-09-06T07:08:52.340Z,68.22
2022-09-06T07:10:55.284Z,69.56
2022-09-06T07:11:52.360Z,70.93
2022-09-06T07:12:52.365Z,65.44
2022-09-06T07:13:52.333Z,70.88
2022-09-06T07:14:52.386Z,72.22
2022-09-06T07:15:52.361Z,73.39
2022-09-06T07:16:52.343Z,68.00
2022-09-06T07:17:52.314Z,69.94
2022-09-06T07:18:52.362Z,69.51
2022-09-06T07:20:22.269Z,69.04
2022-09-06T07:21:54.330Z,68.28
2022-09-06T07:22:52.290Z,67.49
2022-09-06T07:24:08.387Z,69.42
2022-09-06T07:24:54.262Z,73.98
2022-09-06T07:25:52.289Z,71.54
2022-09-06T07:27:54.290Z,71.38
2022-09-06T07:28:52.244Z,69.37
2022-09-06T07:29:52.290Z,66.48
2022-09-06T07:30:52.233Z,68.85
2022-09-06T07:32:54.239Z,72.45
2022-09-06T07:33:55.181Z,72.40
2022-09-06T07:34:53.222Z,68.42
2022-09-06T07:35:52.216Z,70.88
2022-09-06T07:36:52.257Z,71.22
2022-09-06T07:37:52.226Z,68.02
2022-09-06T07:38:52.183Z,69.04
2022-09-06T07:39:52.215Z,68.98
2022-09-06T07:40:52.270Z,68.96
2022-09-06T07:41:52.161Z,68.16
2022-09-06T07:42:52.177Z,69.81
2022-09-06T07:43:52.159Z,67.59
2022-09-06T07:44:52.155Z,69.26
2022-09-06T07:45:52.116Z,66.54
2022-09-06T07:46:52.590Z,68.09
2022-09-06T07:47:59.430Z,66.62
2022-09-06T07:48:54.114Z,67.86
2022-09-06T07:50:58.865Z,69.56
2022-09-06T07:51:53.119Z,72.69
2022-09-06T07:53:10.935Z,69.25
2022-09-06T07:54:07.009Z,71.45
2022-09-06T07:54:53.074Z,66.09
2022-09-06T07:55:52.115Z,57.38
2022-09-06T07:56:52.046Z,67.52
2022-09-06T07:57:52.078Z,67.82
2022-09-06T07:58:52.047Z,67.35
2022-09-06T07:59:52.055Z,72.47
2022-09-06T08:00:52.061Z,71.66
2022-09-06T08:01:52.088Z,68.53
2022-09-06T08:02:52.052Z,68.72
2022-09-06T08:03:52.055Z,66.62
2022-09-06T08:04:52.005Z,67.23
2022-09-06T08:09:52.967Z,69.93
2022-09-06T08:10:51.951Z,68.88
2022-09-06T08:11:51.946Z,70.80
2022-09-06T08:12:51.942Z,72.02
2022-09-06T08:13:51.970Z,69.09
2022-09-06T08:14:52.003Z,69.66
2022-09-06T08:15:52.006Z,71.50
2022-09-06T08:16:51.931Z,69.76
2022-09-06T08:17:51.942Z,68.76
2022-09-06T08:18:51.924Z,69.15
2022-09-06T08:19:51.911Z,72.81
2022-09-06T08:20:51.879Z,67.75
2022-09-06T08:21:51.903Z,69.06
2022-09-06T08:22:51.914Z,72.45
2022-09-06T08:23:51.883Z,68.77
2022-09-06T08:24:51.903Z,71.11
2022-09-06T08:25:51.877Z,68.77
2022-09-06T08:26:51.850Z,68.70
2022-09-06T08:27:51.841Z,73.41
2022-09-06T08:28:51.837Z,67.38
2022-09-06T08:29:51.869Z,69.77
2022-09-06T08:30:51.825Z,69.47
2022-09-06T08:31:51.950Z,66.87
2022-09-06T08:32:51.833Z,68.93
2022-09-06T08:33:51.801Z,69.40
2022-09-06T08:34:51.869Z,68.92
2022-09-06T08:35:51.784Z,68.71
2022-09-06T08:36:51.808Z,72.81
2022-09-06T08:37:51.788Z,70.22
2022-09-06T08:38:51.791Z,73.80
2022-09-06T08:39:51.837Z,63.48
2022-09-06T08:40:51.761Z,66.65
2022-09-06T08:41:51.804Z,72.81
2022-09-06T08:42:51.744Z,72.91
2022-09-06T08:45:55.628Z,67.08
2022-09-06T08:46:52.755Z,60.28
2022-09-06T08:47:51.748Z,69.01
2022-09-06T08:48:51.753Z,69.51
2022-09-06T08:49:51.724Z,72.41
2022-09-06T08:50:51.723Z,69.84
2022-09-06T08:51:51.753Z,67.27
2022-09-06T08:53:15.610Z,70.99
2022-09-06T08:53:55.220Z,68.98
2022-09-06T08:54:51.697Z,68.90
2022-09-06T08:55:51.745Z,69.16
2022-09-06T08:56:51.652Z,65.61
2022-09-06T08:57:51.652Z,68.62
2022-09-06T08:58:51.664Z,67.73
2022-09-06T08:59:51.659Z,69.54
2022-09-06T09:00:51.773Z,68.08
2022-09-06T09:01:51.725Z,67.25
2022-09-06T09:02:51.626Z,67.32
2022-09-06T09:03:51.636Z,68.69
2022-09-06T09:04:51.605Z,71.48
2022-09-06T09:05:51.610Z,67.50
2022-09-06T09:06:51.596Z,67.02
2022-09-06T09:07:51.609Z,69.46
2022-09-06T09:08:51.588Z,71.55
2022-09-06T09:09:51.599Z,71.84
2022-09-06T09:10:51.578Z,68.53
2022-09-06T09:11:51.597Z,72.28
2022-09-06T09:12:51.602Z,68.76
2022-09-06T09:13:51.577Z,66.87
2022-09-06T09:14:51.586Z,69.87
2022-09-06T09:15:51.584Z,67.34
2022-09-06T09:16:51.544Z,66.36
2022-09-06T09:17:51.553Z,71.86
2022-09-06T09:18:51.514Z,70.17
2022-09-06T09:19:51.553Z,71.78
2022-09-06T09:20:51.546Z,71.77
2022-09-06T09:21:51.497Z,69.03
2022-09-06T09:22:51.547Z,68.65
2022-09-06T09:23:51.510Z,71.30
2022-09-06T09:24:51.488Z,64.79
2022-09-06T09:25:51.495Z,67.23
2022-09-06T09:26:51.453Z,68.80
2022-09-06T09:27:51.460Z,69.19
2022-09-06T09:28:51.470Z,65.89
2022-09-06T09:30:53.457Z,67.23
2022-09-06T09:31:53.625Z,70.68
2022-09-06T09:32:51.470Z,66.03
2022-09-06T09:33:51.460Z,70.00
2022-09-06T09:34:51.454Z,65.21
2022-09-06T09:35:51.437Z,70.61
2022-09-06T09:37:59.077Z,66.79
2022-09-06T09:38:52.411Z,65.09
2022-09-06T09:39:51.490Z,62.99
2022-09-06T09:40:51.386Z,64.63
2022-09-06T09:41:52.421Z,68.11
2022-09-06T09:42:51.418Z,68.77
2022-09-06T09:43:51.366Z,69.03
2022-09-06T09:44:51.396Z,66.34
2022-09-06T09:45:51.494Z,64.84
2022-09-06T09:46:51.407Z,69.00
2022-09-06T09:47:51.379Z,66.93
2022-09-06T09:48:51.365Z,71.49
2022-09-06T09:49:51.329Z,68.34
2022-09-06T09:50:51.331Z,66.23
2022-09-06T09:51:51.326Z,69.05
2022-09-06T09:52:51.325Z,66.37
2022-09-06T09:53:51.305Z,65.80
2022-09-06T09:54:51.840Z,64.83
2022-09-06T09:55:51.347Z,66.70
2022-09-06T09:56:51.315Z,56.23
2022-09-06T09:57:51.339Z,64.34
2022-09-06T09:58:51.280Z,68.81
2022-09-06T09:59:51.275Z,64.45
2022-09-06T10:00:51.329Z,67.06
2022-09-06T10:01:51.303Z,67.03
2022-09-06T10:02:51.279Z,66.42
2022-09-06T10:04:53.250Z,65.69
2022-09-06T10:05:51.323Z,67.30
2022-09-06T10:07:53.256Z,68.60
2022-09-06T10:08:51.225Z,65.65
2022-09-06T10:09:51.215Z,67.66
2022-09-06T10:10:51.226Z,67.51
2022-09-06T10:11:51.217Z,63.89
2022-09-06T10:12:51.348Z,69.70
2022-09-06T10:13:52.221Z,64.51
2022-09-06T10:14:51.233Z,69.23
2022-09-06T10:15:51.280Z,67.96
2022-09-06T10:16:52.196Z,70.38
2022-09-06T10:17:51.204Z,67.62
2022-09-06T10:18:51.178Z,64.93
2022-09-06T10:19:51.430Z,70.89
2022-09-06T10:20:51.189Z,67.39
2022-09-06T10:21:51.160Z,69.37
2022-09-06T10:22:51.156Z,67.76
2022-09-06T10:24:53.195Z,68.34
2022-09-06T10:25:51.150Z,66.32
2022-09-06T10:26:51.162Z,64.83
2022-09-06T10:28:10.450Z,68.52
2022-09-06T10:28:53.154Z,71.82
2022-09-06T10:29:51.142Z,71.15
2022-09-06T10:30:51.193Z,69.73
2022-09-06T10:31:51.114Z,66.82
2022-09-06T10:32:51.171Z,68.04
2022-09-06T10:33:51.140Z,63.65
2022-09-06T10:34:51.125Z,66.53
2022-09-06T10:35:51.130Z,67.87
2022-09-06T10:36:51.138Z,69.89
2022-09-06T10:37:51.097Z,67.06
2022-09-06T10:38:51.072Z,70.64
2022-09-06T10:39:51.101Z,67.71
2022-09-06T10:40:51.100Z,65.20
2022-09-06T10:41:52.066Z,67.03
2022-09-06T10:42:51.072Z,60.70
2022-09-06T10:43:51.053Z,69.22
2022-09-06T10:44:51.043Z,65.25
2022-09-06T10:45:51.046Z,69.80
2022-09-06T10:46:51.073Z,66.97
2022-09-06T10:47:51.031Z,73.30
2022-09-06T10:48:51.051Z,68.15
2022-09-06T10:49:51.030Z,66.50
2022-09-06T10:50:51.033Z,65.40
2022-09-06T10:51:51.034Z,64.02
2022-09-06T10:52:51.003Z,65.98
2022-09-06T10:53:50.999Z,64.70
2022-09-06T10:54:51.025Z,69.99
2022-09-06T10:55:50.999Z,67.28
2022-09-06T10:56:51.018Z,69.07
2022-09-06T10:59:52.962Z,63.78
2022-09-06T11:00:51.982Z,65.07
2022-09-06T11:01:51.102Z,63.81
2022-09-06T11:05:52.998Z,67.60
2022-09-06T11:06:50.938Z,67.21
2022-09-06T11:08:53.448Z,68.14
2022-09-06T11:09:50.931Z,66.29
2022-09-06T11:10:50.926Z,69.04
2022-09-06T11:11:50.918Z,69.13
2022-09-06T11:12:50.930Z,68.06
2022-09-06T11:13:50.954Z,68.12
2022-09-06T11:14:50.937Z,66.34
2022-09-06T11:15:51.013Z,65.48
2022-09-06T11:16:50.925Z,67.09
2022-09-06T11:17:50.941Z,68.68
2022-09-06T11:18:50.877Z,69.70
2022-09-06T11:19:50.892Z,65.32
2022-09-06T11:20:50.881Z,69.92
2022-09-06T11:21:50.897Z,68.96
2022-09-06T11:22:50.894Z,67.55
2022-09-06T11:23:50.945Z,66.46
2022-09-06T11:24:50.857Z,65.10
2022-09-06T11:25:50.892Z,69.09
2022-09-06T11:26:50.865Z,63.78
2022-09-06T11:27:53.944Z,65.89
2022-09-06T11:28:51.877Z,67.10
2022-09-06T11:29:50.834Z,68.62
2022-09-06T11:30:50.872Z,66.96
2022-09-06T11:32:52.849Z,67.99
2022-09-06T11:33:50.845Z,64.93
2022-09-06T11:34:50.879Z,70.09
2022-09-06T11:35:50.858Z,66.05
2022-09-06T11:36:50.803Z,69.36
2022-09-06T11:37:50.797Z,68.19
2022-09-06T11:38:50.833Z,63.37
2022-09-06T11:40:52.792Z,63.47
2022-09-06T11:41:50.788Z,64.93
2022-09-06T11:42:50.781Z,70.45
2022-09-06T11:43:50.812Z,67.95
2022-09-06T11:44:50.792Z,68.95
2022-09-06T11:45:50.768Z,65.44
2022-09-06T11:46:50.804Z,65.57
2022-09-06T11:47:50.764Z,69.11
2022-09-06T11:48:50.768Z,70.23
2022-09-06T11:49:50.764Z,71.78
2022-09-06T11:50:50.777Z,67.13
2022-09-06T11:51:50.748Z,67.85
2022-09-06T11:52:50.754Z,68.64
2022-09-06T11:53:50.768Z,67.98
2022-09-06T11:54:50.760Z,62.45
2022-09-06T11:55:57.364Z,69.77
2022-09-06T11:56:50.736Z,67.92
2022-09-06T11:57:50.720Z,70.34
2022-09-06T11:58:50.713Z,67.54
2022-09-06T11:59:50.759Z,69.43
2022-09-06T12:00:50.803Z,67.02
2022-09-06T12:01:50.749Z,69.28
2022-09-06T12:02:50.965Z,68.93
2022-09-06T12:04:07.271Z,65.21
2022-09-06T12:04:53.794Z,68.86
2022-09-06T12:05:50.680Z,68.27
2022-09-06T12:06:50.681Z,68.81
2022-09-06T12:07:50.673Z,68.26
2022-09-06T12:08:50.657Z,66.78
2022-09-06T12:09:50.664Z,68.36
2022-09-06T12:10:50.727Z,68.83
2022-09-06T12:11:50.684Z,65.99
2022-09-06T12:12:50.652Z,68.83
2022-09-06T12:13:50.640Z,68.64
2022-09-06T12:14:50.644Z,68.68
2022-09-06T12:15:50.746Z,68.33
2022-09-06T12:16:50.630Z,71.35
2022-09-06T12:17:50.633Z,69.14
2022-09-06T12:18:50.626Z,63.14
2022-09-06T12:19:50.649Z,68.84
2022-09-06T12:20:50.640Z,67.46
2022-09-06T12:21:50.610Z,69.61
2022-09-06T12:22:50.597Z,67.09
2022-09-06T12:23:50.617Z,69.52
2022-09-06T12:24:50.584Z,63.88
2022-09-06T12:25:50.597Z,71.08
2022-09-06T12:26:55.042Z,70.00
2022-09-06T12:27:52.580Z,67.07
2022-09-06T12:28:50.617Z,66.10
2022-09-06T12:29:50.587Z,70.00
2022-09-06T12:30:50.660Z,69.62
2022-09-06T12:31:50.622Z,69.13
2022-09-06T12:32:50.564Z,65.18
2022-09-06T12:33:50.564Z,66.72
2022-09-06T12:36:51.538Z,70.12
2022-09-06T12:37:50.527Z,67.72
2022-09-06T12:38:50.516Z,69.01
2022-09-06T12:39:50.597Z,73.43
2022-09-06T12:40:50.520Z,70.18
2022-09-06T12:41:50.527Z,69.31
2022-09-06T12:42:50.512Z,66.26
2022-09-06T12:43:50.533Z,70.79
2022-09-06T12:44:50.528Z,67.06
2022-09-06T12:45:50.522Z,69.86
2022-09-06T12:46:50.514Z,68.61
2022-09-06T12:47:50.496Z,66.98
2022-09-06T12:48:50.532Z,69.29
2022-09-06T12:49:50.487Z,68.39
2022-09-06T12:50:50.477Z,71.28
2022-09-06T12:51:50.473Z,67.45
2022-09-06T12:52:50.482Z,69.89
2022-09-06T12:53:50.485Z,69.04
2022-09-06T12:54:50.537Z,68.42
2022-09-06T12:55:50.480Z,66.40
2022-09-06T12:56:50.459Z,69.36
2022-09-06T12:57:50.451Z,66.83
2022-09-06T12:58:50.439Z,64.96
2022-09-06T12:59:50.456Z,71.02
2022-09-06T13:00:50.555Z,69.36
2022-09-06T13:01:50.566Z,66.17
2022-09-06T13:02:50.539Z,68.54
2022-09-06T13:03:50.440Z,72.91
2022-09-06T13:04:50.441Z,67.85
2022-09-06T13:05:50.421Z,64.85
2022-09-06T13:06:50.414Z,71.23
2022-09-06T13:07:50.415Z,68.37
2022-09-06T13:08:50.427Z,67.14
2022-09-06T13:09:50.403Z,68.89
2022-09-06T13:10:50.407Z,67.44
2022-09-06T13:11:50.389Z,64.48
2022-09-06T13:12:50.396Z,70.71
2022-09-06T13:14:22.339Z,70.49
2022-09-06T13:14:50.403Z,65.13
2022-09-06T13:15:50.398Z,68.63
2022-09-06T13:16:50.364Z,69.19
2022-09-06T13:17:50.368Z,68.18
2022-09-06T13:18:50.393Z,68.76
2022-09-06T13:19:50.355Z,67.54
2022-09-06T13:20:50.352Z,67.59